createdAt,value
2023-04-10T00:01:10.654Z,100.00
2023-04-10T00:03:38.014Z,100.00
2023-04-10T00:06:07.366Z,100.00
2023-04-10T00:08:34.551Z,100.00
2023-04-10T00:11:01.674Z,100.00
2023-04-10T00:13:29.791Z,100.00
2023-04-10T00:15:58.011Z,100.00
2023-04-10T00:18:25.247Z,100.00
2023-04-10T00:20:52.464Z,100.00
2023-04-10T00:23:19.615Z,100.00
2023-04-10T00:25:48.922Z,100.00
2023-04-10T00:28:17.195Z,100.00
2023-04-10T00:30:44.430Z,100.00
2023-04-10T00:33:11.667Z,100.00
2023-04-10T00:35:38.959Z,100.00
2023-04-10T00:38:06.111Z,100.00
2023-04-10T00:40:33.336Z,100.00
2023-04-10T00:43:01.137Z,100.00
2023-04-10T00:45:28.381Z,100.00
2023-04-10T00:47:56.092Z,100.00
2023-04-10T00:50:24.185Z,100.00
2023-04-10T00:52:51.726Z,100.00
2023-04-10T00:55:19.137Z,100.00
2023-04-10T00:57:47.815Z,100.00
2023-04-10T01:00:17.363Z,100.00
2023-04-10T01:02:44.738Z,100.00
2023-04-10T01:05:13.508Z,100.00
2023-04-10T01:08:26.784Z,100.00
2023-04-10T01:11:12.925Z,100.00
2023-04-10T01:13:59.375Z,100.00
2023-04-10T01:16:39.107Z,100.00
2023-04-10T01:19:37.475Z,100.00
2023-04-10T01:22:10.509Z,100.00
2023-04-10T01:25:45.504Z,100.00
2023-04-10T01:28:52.821Z,100.00
2023-04-10T01:31:53.416Z,100.00
2023-04-10T01:34:35.924Z,100.00
2023-04-10T01:37:09.095Z,100.00
2023-04-10T01:39:41.872Z,100.00
2023-04-10T01:42:14.530Z,100.00
2023-04-10T01:44:45.996Z,100.00
2023-04-10T01:47:18.880Z,100.00
2023-04-10T01:49:49.036Z,100.00
2023-04-10T01:52:17.917Z,100.00
2023-04-10T01:54:51.217Z,100.00
2023-04-10T01:57:25.205Z,100.00
2023-04-10T01:59:55.900Z,100.00
2023-04-10T02:02:23.661Z,100.00
2023-04-10T02:04:51.807Z,100.00
2023-04-10T02:08:02.151Z,100.00
2023-04-10T02:10:45.224Z,100.00
2023-04-10T02:13:16.196Z,100.00
2023-04-10T02:15:46.738Z,100.00
2023-04-10T02:18:18.371Z,100.00
2023-04-10T02:20:46.242Z,100.00
2023-04-10T02:23:17.080Z,100.00
2023-04-10T02:25:44.247Z,100.00
2023-04-10T02:28:11.622Z,100.00
2023-04-10T02:30:39.322Z,100.00
2023-04-10T02:33:07.039Z,100.00
2023-04-10T02:35:34.894Z,100.00
2023-04-10T02:38:03.858Z,100.00
2023-04-10T02:40:33.807Z,100.00
2023-04-10T02:43:13.523Z,100.00
2023-04-10T02:45:41.880Z,100.00
2023-04-10T02:48:11.195Z,100.00
2023-04-10T02:50:38.507Z,100.00
2023-04-10T02:53:05.683Z,100.00
2023-04-10T02:55:32.998Z,100.00
2023-04-10T02:58:00.207Z,100.00
2023-04-10T03:00:27.557Z,100.00
2023-04-10T03:03:10.370Z,100.00
2023-04-10T03:05:49.340Z,100.00
2023-04-10T03:08:19.019Z,100.00
2023-04-10T03:10:51.040Z,100.00
2023-04-10T03:13:18.441Z,100.00
2023-04-10T03:15:45.727Z,100.00
2023-04-10T03:18:13.134Z,100.00
2023-04-10T03:20:44.957Z,100.00
2023-04-10T03:23:12.540Z,100.00
2023-04-10T03:25:39.744Z,100.00
2023-04-10T03:28:08.175Z,100.00
2023-04-10T03:30:37.032Z,100.00
2023-04-10T03:33:04.544Z,100.00
2023-04-10T03:35:31.830Z,100.00
2023-04-10T03:38:00.246Z,100.00
2023-04-10T03:40:27.491Z,100.00
2023-04-10T03:42:55.095Z,100.00
2023-04-10T03:45:22.356Z,100.00
2023-04-10T03:47:49.697Z,100.00
2023-04-10T03:50:17.013Z,100.00
2023-04-10T03:53:02.037Z,100.00
2023-04-10T03:55:30.805Z,100.00
2023-04-10T03:57:58.380Z,100.00
2023-04-10T04:00:27.435Z,100.00
2023-04-10T04:03:04.947Z,100.00
2023-04-10T04:05:53.909Z,100.00
2023-04-10T04:08:39.401Z,100.00
2023-04-10T04:11:17.822Z,100.00
2023-04-10T04:14:05.220Z,100.00
2023-04-10T04:16:51.164Z,100.00
2023-04-10T04:19:27.278Z,100.00
2023-04-10T04:22:13.520Z,100.00
2023-04-10T04:25:08.845Z,100.00
2023-04-10T04:28:16.025Z,100.00
2023-04-10T04:31:03.468Z,100.00
2023-04-10T04:33:50.233Z,100.00
2023-04-10T04:36:35.979Z,100.00
2023-04-10T04:39:23.384Z,100.00
2023-04-10T04:42:03.320Z,100.00
2023-04-10T04:44:50.240Z,100.00
2023-04-10T04:47:52.708Z,100.00
2023-04-10T04:50:31.081Z,100.00
2023-04-10T04:53:27.504Z,100.00
2023-04-10T04:56:23.998Z,100.00
2023-04-10T04:59:09.724Z,100.00
2023-04-10T05:01:55.888Z,100.00
2023-04-10T05:04:45.681Z,100.00
2023-04-10T05:07:29.507Z,100.00
2023-04-10T05:10:12.547Z,100.00
2023-04-10T05:12:58.269Z,100.00
2023-04-10T05:15:36.009Z,100.00
2023-04-10T05:18:29.413Z,100.00
2023-04-10T05:20:56.675Z,100.00
2023-04-10T05:23:41.211Z,100.00
2023-04-10T05:26:34.653Z,100.00
2023-04-10T05:29:20.389Z,100.00
2023-04-10T05:32:06.299Z,100.00
2023-04-10T05:34:52.080Z,100.00
2023-04-10T05:37:33.036Z,100.00
2023-04-10T05:40:21.133Z,100.00
2023-04-10T05:43:11.183Z,100.00
2023-04-10T05:45:58.546Z,100.00
2023-04-10T05:48:44.245Z,100.00
2023-04-10T05:51:36.831Z,100.00
2023-04-10T05:54:19.447Z,100.00
2023-04-10T05:56:49.869Z,100.00
2023-04-10T05:59:36.015Z,100.00
2023-04-10T06:02:24.626Z,100.00
2023-04-10T06:04:52.261Z,100.00
2023-04-10T06:07:20.238Z,100.00
2023-04-10T06:09:47.369Z,100.00
2023-04-10T06:12:14.637Z,100.00
2023-04-10T06:14:42.148Z,100.00
2023-04-10T06:17:11.877Z,100.00
2023-04-10T06:19:39.220Z,100.00
2023-04-10T06:22:06.387Z,100.00
2023-04-10T06:24:33.553Z,100.00
2023-04-10T06:27:01.078Z,100.00
2023-04-10T06:29:28.543Z,100.00
2023-04-10T06:31:55.702Z,100.00
2023-04-10T06:34:22.895Z,100.00
2023-04-10T06:36:58.082Z,100.00
2023-04-10T06:39:25.997Z,100.00
2023-04-10T06:41:53.356Z,100.00
2023-04-10T06:44:41.831Z,100.00
2023-04-10T06:47:09.349Z,100.00
2023-04-10T06:49:36.684Z,100.00
2023-04-10T06:52:04.043Z,100.00
2023-04-10T06:54:31.380Z,100.00
2023-04-10T06:56:58.956Z,100.00
2023-04-10T06:59:26.620Z,100.00
2023-04-10T07:01:53.780Z,100.00
2023-04-10T07:04:21.140Z,100.00
2023-04-10T07:06:48.259Z,100.00
2023-04-10T07:09:15.431Z,100.00
2023-04-10T07:11:42.760Z,100.00
2023-04-10T07:14:10.076Z,100.00
2023-04-10T07:16:37.580Z,100.00
2023-04-10T07:19:05.095Z,100.00
2023-04-10T07:21:32.980Z,100.00
2023-04-10T07:24:00.310Z,100.00
2023-04-10T07:26:27.660Z,100.00
2023-04-10T07:28:55.153Z,100.00
2023-04-10T07:31:22.627Z,100.00
2023-04-10T07:33:50.038Z,100.00
2023-04-10T07:36:17.478Z,100.00
2023-04-10T07:38:44.684Z,100.00
2023-04-10T07:41:12.212Z,100.00
2023-04-10T07:43:39.530Z,100.00
2023-04-10T07:46:07.215Z,100.00
2023-04-10T07:48:34.643Z,100.00
2023-04-10T07:51:02.682Z,100.00
2023-04-10T07:53:29.901Z,100.00
2023-04-10T07:55:57.269Z,100.00
2023-04-10T07:58:24.418Z,100.00
2023-04-10T08:00:52.121Z,100.00
2023-04-10T08:03:19.543Z,100.00
2023-04-10T08:05:46.915Z,100.00
2023-04-10T08:08:16.401Z,100.00
2023-04-10T08:10:43.578Z,100.00
2023-04-10T08:13:10.722Z,100.00
2023-04-10T08:15:37.981Z,100.00
2023-04-10T08:18:05.587Z,100.00
2023-04-10T08:20:36.831Z,100.00
2023-04-10T08:23:17.358Z,100.00
2023-04-10T08:25:47.824Z,100.00
2023-04-10T08:28:15.311Z,100.00
2023-04-10T08:30:42.513Z,100.00
2023-04-10T08:33:16.213Z,100.00
2023-04-10T08:35:47.552Z,100.00
2023-04-10T08:38:14.946Z,100.00
2023-04-10T08:40:42.739Z,100.00
2023-04-10T08:43:09.968Z,100.00
2023-04-10T08:45:37.302Z,97.60
2023-04-10T08:48:08.064Z,90.88
2023-04-10T08:50:38.602Z,94.72
2023-04-10T08:53:13.478Z,95.88
2023-04-10T08:55:42.322Z,99.63
2023-04-10T08:58:11.294Z,86.92
2023-04-10T09:00:39.530Z,87.23
2023-04-10T09:03:11.916Z,84.65
2023-04-10T09:05:39.229Z,86.47
2023-04-10T09:08:09.782Z,86.24
2023-04-10T09:10:37.192Z,86.75
2023-04-10T09:13:04.374Z,86.89
2023-04-10T09:15:33.213Z,89.26
2023-04-10T09:18:03.717Z,84.19
2023-04-10T09:20:32.343Z,83.16
2023-04-10T09:22:59.491Z,86.00
2023-04-10T09:25:41.048Z,83.54
2023-04-10T09:28:10.080Z,81.42
2023-04-10T09:30:42.916Z,80.36
2023-04-10T09:33:27.915Z,81.76
2023-04-10T09:36:00.882Z,76.14
2023-04-10T09:38:28.935Z,76.47
2023-04-10T09:41:08.462Z,73.70
2023-04-10T09:43:36.447Z,77.75
2023-04-10T09:46:04.071Z,74.35
2023-04-10T09:48:31.601Z,79.59
2023-04-10T09:50:59.034Z,79.05
2023-04-10T09:53:26.430Z,79.47
2023-04-10T09:55:54.693Z,79.01
2023-04-10T09:58:24.067Z,76.00
2023-04-10T10:00:52.176Z,77.93
2023-04-10T10:03:22.847Z,78.02
2023-04-10T10:05:51.921Z,76.25
2023-04-10T10:08:19.864Z,70.08
2023-04-10T10:10:54.780Z,70.98
2023-04-10T10:13:38.951Z,75.00
2023-04-10T10:16:26.950Z,68.75
2023-04-10T10:19:21.038Z,73.32
2023-04-10T10:21:48.800Z,72.80
2023-04-10T10:24:17.289Z,72.75
2023-04-10T10:26:47.301Z,67.15
2023-04-10T10:29:18.442Z,66.65
2023-04-10T10:31:47.823Z,69.81
2023-04-10T10:34:16.882Z,70.97
2023-04-10T10:36:44.058Z,70.19
2023-04-10T10:39:54.352Z,66.52
2023-04-10T10:43:25.993Z,66.77
2023-04-10T10:46:07.661Z,67.09
2023-04-10T10:48:35.086Z,67.30
2023-04-10T10:51:03.659Z,67.65
2023-04-10T10:53:49.192Z,67.66
2023-04-10T10:56:18.968Z,69.65
2023-04-10T10:58:57.397Z,69.64
2023-04-10T11:01:24.884Z,66.90
2023-04-10T11:03:52.278Z,64.09
2023-04-10T11:06:52.197Z,52.50
2023-04-10T11:09:51.349Z,46.80
2023-04-10T11:12:25.329Z,43.93
2023-04-10T11:15:03.028Z,42.95
2023-04-10T11:17:54.341Z,39.47
2023-04-10T11:20:25.713Z,39.16
2023-04-10T11:23:13.229Z,46.44
2023-04-10T11:25:52.885Z,45.41
2023-04-10T11:28:39.617Z,39.08
2023-04-10T11:31:26.101Z,36.83
2023-04-10T11:33:57.503Z,34.16
2023-04-10T11:36:25.278Z,36.37
2023-04-10T11:39:00.815Z,35.34
2023-04-10T11:41:37.334Z,35.55
2023-04-10T11:44:08.752Z,34.01
2023-04-10T11:46:42.439Z,35.06
2023-04-10T11:49:11.353Z,37.65
2023-04-10T11:51:40.682Z,40.46
2023-04-10T11:54:17.514Z,43.51
2023-04-10T11:57:02.574Z,45.70
2023-04-10T11:59:32.865Z,45.65
2023-04-10T12:02:15.275Z,46.53
2023-04-10T12:04:44.689Z,49.38
2023-04-10T12:07:12.215Z,50.63
2023-04-10T12:09:39.682Z,50.31
2023-04-10T12:12:08.410Z,50.21
2023-04-10T12:14:42.748Z,48.67
2023-04-10T12:17:12.943Z,50.45
2023-04-10T12:19:40.938Z,48.91
2023-04-10T12:22:08.488Z,52.01
2023-04-10T12:24:51.419Z,49.77
2023-04-10T12:27:26.681Z,54.74
2023-04-10T12:29:57.852Z,50.48
2023-04-10T12:32:27.622Z,52.02
2023-04-10T12:34:58.376Z,47.64
2023-04-10T12:37:49.409Z,49.04
2023-04-10T12:40:17.214Z,46.89
2023-04-10T12:42:44.776Z,46.13
2023-04-10T12:45:14.074Z,47.97
2023-04-10T12:47:53.953Z,50.27
2023-04-10T12:50:21.280Z,49.40
2023-04-10T12:53:11.890Z,48.08
2023-04-10T12:55:40.228Z,49.04
2023-04-10T12:58:20.597Z,48.64
2023-04-10T13:00:49.163Z,48.68
2023-04-10T13:03:16.530Z,45.36
2023-04-10T13:05:44.755Z,49.43
2023-04-10T13:08:12.034Z,49.99
2023-04-10T13:10:40.521Z,50.05
2023-04-10T13:13:08.060Z,49.69
2023-04-10T13:15:35.390Z,49.85
2023-04-10T13:18:05.235Z,47.55
2023-04-10T13:20:36.203Z,46.21
2023-04-10T13:23:03.945Z,48.16
2023-04-10T13:25:34.771Z,50.38
2023-04-10T13:28:02.232Z,50.02
2023-04-10T13:30:29.557Z,50.05
2023-04-10T13:32:56.852Z,49.37
2023-04-10T13:35:24.196Z,49.13
2023-04-10T13:37:54.044Z,49.90
2023-04-10T13:40:21.700Z,49.21
2023-04-10T13:42:49.279Z,48.07
2023-04-10T13:45:16.718Z,43.18
2023-04-10T13:47:44.093Z,44.73
2023-04-10T13:50:11.776Z,45.24
2023-04-10T13:52:39.121Z,43.17
2023-04-10T13:55:07.707Z,39.77
2023-04-10T13:57:34.973Z,36.80
2023-04-10T14:00:02.170Z,37.39
2023-04-10T14:02:39.994Z,34.82
2023-04-10T14:05:08.978Z,32.10
2023-04-10T14:07:36.155Z,33.50
2023-04-10T14:10:04.044Z,34.99
2023-04-10T14:12:31.184Z,32.00
2023-04-10T14:14:59.244Z,34.75
2023-04-10T14:17:26.815Z,39.48
2023-04-10T14:19:54.266Z,39.42
2023-04-10T14:22:21.702Z,34.33
2023-04-10T14:24:49.938Z,34.33
2023-04-10T14:27:18.513Z,37.66
2023-04-10T14:29:54.261Z,39.50
2023-04-10T14:32:22.413Z,35.64
2023-04-10T14:34:49.734Z,32.73
2023-04-10T14:37:18.944Z,33.07
2023-04-10T14:39:46.211Z,34.16
2023-04-10T14:42:13.465Z,32.58
2023-04-10T14:44:40.966Z,34.98
2023-04-10T14:47:08.411Z,34.23
2023-04-10T14:49:35.835Z,33.12
2023-04-10T14:52:03.361Z,35.24
2023-04-10T14:54:30.604Z,33.70
2023-04-10T14:56:58.528Z,33.61
2023-04-10T14:59:25.766Z,33.86
2023-04-10T15:01:53.957Z,34.12
2023-04-10T15:04:21.508Z,38.98
2023-04-10T15:06:48.924Z,39.30
2023-04-10T15:09:16.429Z,40.03
2023-04-10T15:11:43.836Z,39.42
2023-04-10T15:14:12.031Z,38.40
2023-04-10T15:16:39.312Z,38.07
2023-04-10T15:19:06.504Z,35.19
2023-04-10T15:21:34.196Z,37.71
2023-04-10T15:24:01.470Z,35.55
2023-04-10T15:26:28.615Z,34.12
2023-04-10T15:28:56.127Z,34.38
2023-04-10T15:31:24.017Z,33.29
2023-04-10T15:33:54.306Z,37.03
2023-04-10T15:36:21.778Z,35.92
2023-04-10T15:38:50.341Z,35.81
2023-04-10T15:41:17.689Z,38.73
2023-04-10T15:43:44.864Z,37.02
2023-04-10T15:46:12.466Z,36.56
2023-04-10T15:48:39.941Z,37.75
2023-04-10T15:51:08.008Z,39.19
2023-04-10T15:53:35.721Z,38.80
2023-04-10T15:56:06.931Z,39.03
2023-04-10T15:58:34.491Z,39.81
2023-04-10T16:01:02.499Z,38.70
2023-04-10T16:03:30.463Z,39.16
2023-04-10T16:05:58.359Z,38.64
2023-04-10T16:08:26.334Z,41.37
2023-04-10T16:10:54.195Z,40.92
2023-04-10T16:13:21.470Z,41.53
2023-04-10T16:15:50.093Z,42.95
2023-04-10T16:18:17.333Z,43.12
2023-04-10T16:20:44.587Z,41.69
2023-04-10T16:23:11.837Z,42.72
2023-04-10T16:25:39.065Z,43.79
2023-04-10T16:28:08.023Z,43.63
2023-04-10T16:30:36.403Z,43.63
2023-04-10T16:33:04.220Z,43.39
2023-04-10T16:35:31.956Z,44.71
2023-04-10T16:37:59.382Z,44.43
2023-04-10T16:40:32.738Z,45.47
2023-04-10T16:43:01.738Z,44.78
2023-04-10T16:45:29.314Z,44.30
2023-04-10T16:47:56.703Z,45.76
2023-04-10T16:50:24.387Z,45.54
2023-04-10T16:52:51.709Z,47.41
2023-04-10T16:55:19.329Z,49.37
2023-04-10T16:57:46.736Z,49.20
2023-04-10T17:00:14.669Z,50.22
2023-04-10T17:02:42.885Z,49.48
2023-04-10T17:05:11.266Z,50.11
2023-04-10T17:07:38.491Z,50.32
2023-04-10T17:10:06.447Z,49.76
2023-04-10T17:12:33.864Z,51.92
2023-04-10T17:15:01.193Z,50.85
2023-04-10T17:17:28.554Z,50.83
2023-04-10T17:19:55.971Z,52.54
2023-04-10T17:22:23.337Z,51.05
2023-04-10T17:24:50.675Z,51.02
2023-04-10T17:27:17.902Z,50.69
2023-04-10T17:29:45.179Z,51.90
2023-04-10T17:32:12.378Z,51.38
2023-04-10T17:34:39.568Z,53.26
2023-04-10T17:37:06.798Z,53.11
2023-04-10T17:39:34.026Z,52.78
2023-04-10T17:42:01.468Z,53.78
2023-04-10T17:44:28.742Z,54.68
2023-04-10T17:46:56.629Z,54.32
2023-04-10T17:49:25.410Z,54.06
2023-04-10T17:51:52.818Z,54.20
2023-04-10T17:54:20.180Z,54.07
2023-04-10T17:56:47.431Z,54.00
2023-04-10T17:59:14.658Z,54.01
2023-04-10T18:01:41.977Z,54.13
2023-04-10T18:04:09.242Z,55.70
2023-04-10T18:06:36.444Z,55.65
2023-04-10T18:09:03.791Z,58.38
2023-04-10T18:11:30.991Z,56.92
2023-04-10T18:13:58.219Z,58.09
2023-04-10T18:16:25.787Z,61.95
2023-04-10T18:18:53.278Z,60.10
2023-04-10T18:21:21.179Z,59.73
2023-04-10T18:23:48.340Z,59.95
2023-04-10T18:26:15.810Z,60.75
2023-04-10T18:28:43.507Z,61.58
2023-04-10T18:31:12.569Z,61.99
2023-04-10T18:33:40.038Z,61.74
2023-04-10T18:36:08.177Z,62.84
2023-04-10T18:38:35.461Z,65.70
2023-04-10T18:41:02.613Z,65.19
2023-04-10T18:43:29.882Z,64.50
2023-04-10T18:45:57.389Z,65.21
2023-04-10T18:48:24.639Z,65.18
2023-04-10T18:50:54.873Z,65.89
2023-04-10T18:53:22.409Z,66.19
2023-04-10T18:55:53.665Z,66.90
2023-04-10T18:58:22.190Z,67.99
2023-04-10T19:00:49.887Z,68.92
2023-04-10T19:03:18.318Z,69.29
2023-04-10T19:05:45.831Z,70.52
2023-04-10T19:08:14.422Z,72.62
2023-04-10T19:10:42.807Z,73.65
2023-04-10T19:13:12.398Z,75.42
2023-04-10T19:15:47.080Z,76.45
2023-04-10T19:18:15.870Z,77.68
2023-04-10T19:20:49.912Z,78.82
2023-04-10T19:23:18.755Z,78.76
2023-04-10T19:25:46.090Z,80.20
2023-04-10T19:28:13.223Z,80.08
2023-04-10T19:30:40.598Z,82.06
2023-04-10T19:33:07.744Z,82.09
2023-04-10T19:35:35.004Z,83.62
2023-04-10T19:38:02.232Z,84.83
2023-04-10T19:40:31.532Z,85.05
2023-04-10T19:43:00.307Z,86.74
2023-04-10T19:45:29.021Z,87.28
2023-04-10T19:47:56.871Z,87.65
2023-04-10T19:50:24.569Z,88.19
2023-04-10T19:52:52.496Z,89.32
2023-04-10T19:55:19.909Z,90.13
2023-04-10T19:57:47.943Z,91.59
2023-04-10T20:00:15.433Z,92.68
2023-04-10T20:02:43.030Z,93.22
2023-04-10T20:05:10.697Z,93.80
2023-04-10T20:07:37.931Z,95.13
2023-04-10T20:10:06.119Z,98.52
2023-04-10T20:12:33.406Z,99.62
2023-04-10T20:15:03.530Z,100.00
2023-04-10T20:17:31.407Z,100.00
2023-04-10T20:19:58.685Z,100.00
2023-04-10T20:22:25.933Z,100.00
2023-04-10T20:24:53.080Z,100.00
2023-04-10T20:27:20.317Z,100.00
2023-04-10T20:29:47.442Z,100.00
2023-04-10T20:32:14.608Z,100.00
2023-04-10T20:34:41.750Z,100.00
2023-04-10T20:37:08.940Z,100.00
2023-04-10T20:39:37.741Z,100.00
2023-04-10T20:42:06.482Z,100.00
2023-04-10T20:44:37.858Z,100.00
2023-04-10T20:47:08.205Z,100.00
2023-04-10T20:49:37.508Z,100.00
2023-04-10T20:52:06.218Z,100.00
2023-04-10T20:54:33.834Z,100.00
2023-04-10T20:57:01.804Z,100.00
2023-04-10T20:59:33.327Z,100.00
2023-04-10T21:02:00.901Z,100.00
2023-04-10T21:04:28.341Z,100.00
2023-04-10T21:06:55.612Z,100.00
2023-04-10T21:09:22.749Z,100.00
2023-04-10T21:11:49.936Z,100.00
2023-04-10T21:14:17.105Z,100.00
2023-04-10T21:16:45.771Z,100.00
2023-04-10T21:19:13.380Z,100.00
2023-04-10T21:21:40.652Z,100.00
2023-04-10T21:24:07.874Z,100.00
2023-04-10T21:26:35.140Z,100.00
2023-04-10T21:29:02.450Z,100.00
2023-04-10T21:31:29.616Z,100.00
2023-04-10T21:33:56.778Z,100.00
2023-04-10T21:36:23.946Z,100.00
2023-04-10T21:38:51.064Z,100.00
2023-04-10T21:41:18.424Z,100.00
2023-04-10T21:43:45.640Z,100.00
2023-04-10T21:46:12.807Z,100.00
2023-04-10T21:48:41.474Z,100.00
2023-04-10T21:51:08.664Z,100.00
2023-04-10T21:53:35.788Z,100.00
2023-04-10T21:56:02.920Z,100.00
2023-04-10T21:58:31.632Z,100.00
2023-04-10T22:00:58.829Z,100.00
2023-04-10T22:03:27.214Z,100.00
2023-04-10T22:05:54.511Z,100.00
2023-04-10T22:08:22.021Z,100.00
2023-04-10T22:10:49.256Z,100.00
2023-04-10T22:13:29.685Z,100.00
2023-04-10T22:15:59.608Z,100.00
2023-04-10T22:18:26.772Z,100.00
2023-04-10T22:20:53.937Z,100.00
2023-04-10T22:23:21.087Z,100.00
2023-04-10T22:25:48.217Z,100.00
2023-04-10T22:28:15.439Z,100.00
2023-04-10T22:30:42.581Z,100.00
2023-04-10T22:33:11.905Z,100.00
2023-04-10T22:35:39.067Z,100.00
2023-04-10T22:38:07.660Z,100.00
2023-04-10T22:40:34.955Z,100.00
2023-04-10T22:43:02.238Z,100.00
2023-04-10T22:45:29.418Z,100.00
2023-04-10T22:47:56.699Z,100.00
2023-04-10T22:50:23.896Z,100.00
2023-04-10T22:52:51.184Z,100.00
2023-04-10T22:55:18.563Z,100.00
2023-04-10T22:57:49.402Z,100.00
2023-04-10T23:00:17.090Z,100.00
2023-04-10T23:02:44.420Z,100.00
2023-04-10T23:05:11.602Z,100.00
2023-04-10T23:07:38.844Z,100.00
2023-04-10T23:10:07.425Z,100.00
2023-04-10T23:12:34.541Z,100.00
2023-04-10T23:15:01.685Z,100.00
2023-04-10T23:17:28.902Z,100.00
2023-04-10T23:19:56.104Z,100.00
2023-04-10T23:22:23.391Z,100.00
2023-04-10T23:24:57.744Z,100.00
2023-04-10T23:27:25.073Z,100.00
2023-04-10T23:29:52.356Z,100.00
2023-04-10T23:32:19.531Z,100.00
2023-04-10T23:34:46.679Z,100.00
2023-04-10T23:37:13.815Z,100.00
2023-04-10T23:39:40.993Z,100.00
2023-04-10T23:42:08.284Z,100.00
2023-04-10T23:44:35.736Z,100.00
2023-04-10T23:47:03.159Z,100.00
2023-04-10T23:49:30.572Z,100.00
2023-04-10T23:51:57.804Z,100.00
2023-04-10T23:54:25.146Z,100.00
2023-04-10T23:56:52.332Z,100.00
2023-04-10T23:59:19.951Z,100.00
